Time;durP1;ratioP1;P1;durP2;ratioP2;P2;SDS_P1;SDS_P2;PMS_P1;PMS_P2;Temp;Humidity;BMP_temperature;BMP_pressure;BME280_temperature;BME280_humidity;BME280_pressure;Samples;Min_cycle;Max_cycle;Signal;HPM_P1;HPM_P2
2022/01/25 00:26:33;;;;;;;80.50;36.40;;;;;;;-0.96;81.17;100171.91;108162;1274;22763;-74
2022/01/25 00:31:31;;;;;;;82.60;36.00;;;;;;;-1.01;80.85;100165.75;108247;1273;25389;-81
2022/01/25 00:33:58;;;;;;;84.40;36.50;;;;;;;-1.01;80.60;100166.59;108224;1273;25988;-81
2022/01/25 00:36:26;;;;;;;82.90;38.40;;;;;;;-1.00;80.29;100165.58;108181;1273;22546;-80
2022/01/25 00:38:55;;;;;;;86.20;39.30;;;;;;;-0.96;80.26;100162.34;108239;1273;22602;-78
2022/01/25 00:41:24;;;;;;;84.80;39.10;;;;;;;-0.94;80.44;100162.70;108238;1273;22553;-79
2022/01/25 00:43:53;;;;;;;76.80;35.40;;;;;;;-0.91;81.02;100161.19;108212;1273;22666;-79
2022/01/25 00:46:22;;;;;;;78.20;35.50;;;;;;;-0.93;81.00;100165.27;108220;1273;23864;-75
2022/01/25 00:48:53;;;;;;;79.70;37.50;;;;;;;-0.94;80.93;100160.98;108200;1273;25418;-77
2022/01/25 00:54:04;;;;;;;90.30;39.70;;;;;;;-0.93;80.79;100159.80;108205;1273;25413;-75
2022/01/25 00:56:35;;;;;;;82.70;39.50;;;;;;;-0.87;80.47;100157.09;108204;1273;22584;-76
2022/01/25 00:59:05;;;;;;;81.50;38.60;;;;;;;-0.83;80.67;100157.46;108224;1273;22730;-75
2022/01/25 01:01:33;;;;;;;77.30;37.60;;;;;;;-0.83;81.24;100156.44;108345;1273;22555;-79
2022/01/25 01:04:01;;;;;;;78.70;36.40;;;;;;;-0.86;81.11;100154.36;108451;1274;22598;-79
2022/01/25 01:06:28;;;;;;;75.60;35.60;;;;;;;-0.89;80.86;100153.66;108471;1273;24090;-74
2022/01/25 01:08:55;;;;;;;68.80;35.40;;;;;;;-0.90;80.65;100147.68;108457;1273;22708;-77
2022/01/25 01:11:31;;;;;;;68.10;33.70;;;;;;;-0.93;80.44;100146.63;108435;1274;22556;-75
2022/01/25 01:17:05;;;;;;;;;;;;;;;-0.89;80.16;100148.86;108148;1273;395728;-77
2022/01/25 01:43:57;;;;;;;84.10;38.10;;;;;;;-0.83;80.60;100126.15;108373;1277;23942;-75
2022/01/25 01:48:55;;;;;;;70.30;32.70;;;;;;;-0.87;80.14;100121.16;108306;1277;24382;-79
2022/01/25 01:51:34;;;;;;;76.40;37.10;;;;;;;-0.90;79.90;100114.16;108323;1279;22743;-79
2022/01/25 01:54:07;;;;;;;84.20;38.30;;;;;;;-0.90;79.82;100107.48;108318;1279;22579;-75
2022/01/25 01:56:35;;;;;;;84.80;38.30;;;;;;;-0.88;79.96;100105.25;108337;1279;22572;-75
2022/01/25 01:59:05;;;;;;;76.20;37.70;;;;;;;-0.87;80.27;100103.73;108327;1279;22547;-74
2022/01/25 02:01:35;;;;;;;66.50;32.70;;;;;;;-0.86;80.66;100104.41;108326;1279;22556;-81
2022/01/25 02:04:04;;;;;;;76.50;37.90;;;;;;;-0.88;80.79;100107.48;108329;1279;22580;-80
2022/01/25 02:06:31;;;;;;;77.30;36.10;;;;;;;-0.88;80.63;100102.17;108315;1277;25386;-80
2022/01/25 02:08:58;;;;;;;74.40;34.10;;;;;;;-0.89;80.56;100099.96;108316;1277;22701;-80
2022/01/25 02:11:26;;;;;;;71.40;32.10;;;;;;;-0.93;80.27;100092.60;108311;1277;22556;-80
2022/01/25 02:13:53;;;;;;;83.90;38.00;;;;;;;-0.94;80.08;100090.52;108340;1277;22555;-80
2022/01/25 02:24:33;;;;;;;77.00;34.80;;;;;;;-0.92;81.08;100084.91;108327;1277;22569;-79
2022/01/25 02:27:01;;;;;;;69.10;34.00;;;;;;;-0.93;80.77;100079.08;108339;1277;22556;-75
2022/01/25 02:29:29;;;;;;;67.80;32.20;;;;;;;-0.93;80.61;100073.60;108325;1277;25306;-74
2022/01/25 02:31:56;;;;;;;69.10;32.90;;;;;;;-0.94;80.58;100072.40;108332;1277;24444;-80
2022/01/25 02:34:25;;;;;;;81.00;38.10;;;;;;;-0.92;80.23;100072.59;108329;1277;22550;-81
2022/01/25 02:37:01;;;;;;;83.20;39.60;;;;;;;-0.86;80.30;100069.35;108308;1279;22703;-81
2022/01/25 02:39:28;;;;;;;69.70;33.40;;;;;;;-0.82;80.54;100068.87;108326;1279;22665;-79
2022/01/25 02:41:56;;;;;;;68.10;32.20;;;;;;;-0.82;80.92;100068.35;108316;1279;22559;-79
2022/01/25 02:44:26;;;;;;;75.00;34.80;;;;;;;-0.84;81.03;100069.71;108326;1279;22662;-78
2022/01/25 02:49:33;;;;;;;76.50;34.10;;;;;;;-0.89;80.47;100063.35;108280;1279;22742;-79
2022/01/25 02:52:06;;;;;;;66.90;31.10;;;;;;;-0.91;80.26;100060.28;108271;1279;22581;-78
2022/01/25 02:54:35;;;;;;;80.10;36.20;;;;;;;-0.92;80.13;100057.88;108283;1279;22580;-76
2022/01/25 02:57:02;;;;;;;87.50;39.30;;;;;;;-0.89;80.13;100053.95;108302;1279;22555;-79
2022/01/25 02:59:29;;;;;;;73.00;36.80;;;;;;;-0.88;80.30;100049.84;108280;1279;22551;-74
2022/01/25 03:01:56;;;;;;;70.40;34.50;;;;;;;-0.86;80.73;100046.44;108313;1279;22654;-81
2022/01/25 03:04:23;;;;;;;74.90;34.40;;;;;;;-0.87;80.76;100041.98;108330;1279;22576;-81
2022/01/25 03:06:51;;;;;;;71.50;34.30;;;;;;;-0.89;80.71;100041.97;108320;1279;22559;-80
2022/01/25 03:09:18;;;;;;;75.50;35.60;;;;;;;-0.90;80.66;100040.61;108314;1277;22612;-80
2022/01/25 03:11:48;;;;;;;66.80;32.50;;;;;;;-0.91;80.21;100040.97;108301;1277;22613;-78
2022/01/25 03:14:17;;;;;;;78.80;33.70;;;;;;;-0.94;80.18;100041.62;108311;1277;22576;-79
2022/01/25 03:16:48;;;;;;;75.80;36.70;;;;;;;-0.89;80.22;100039.92;108290;1277;22567;-78
2022/01/25 03:25:01;;;;;;;63.10;32.00;;;;;;;-0.91;81.09;100047.97;108000;1277;22628;-78
2022/01/25 03:27:28;;;;;;;61.20;28.80;;;;;;;-0.94;80.89;100053.25;108360;1277;22567;-74
2022/01/25 03:29:55;;;;;;;66.00;30.80;;;;;;;-0.97;80.78;100051.17;108322;1277;22567;-73
2022/01/25 03:32:22;;;;;;;74.30;32.90;;;;;;;-0.99;80.85;100050.34;108342;1277;22570;-80
2022/01/25 03:34:49;;;;;;;74.90;35.90;;;;;;;-0.95;80.76;100052.55;108266;1277;22583;-74
2022/01/25 03:37:16;;;;;;;69.80;34.30;;;;;;;-0.93;80.80;100053.43;108212;1279;22705;-74
2022/01/25 03:39:43;;;;;;;64.90;30.80;;;;;;;-0.91;81.34;100053.09;108103;1277;22566;-75
2022/01/25 03:42:11;;;;;;;69.80;33.80;;;;;;;-0.94;81.46;100049.31;108043;1277;22671;-73
2022/01/25 03:44:40;;;;;;;66.10;32.10;;;;;;;-0.95;81.34;100045.38;108042;1277;22712;-73
2022/01/25 03:47:11;;;;;;;65.10;31.00;;;;;;;-0.96;81.26;100038.69;108057;1277;22717;-83
2022/01/25 03:49:51;;;;;;;67.50;33.40;;;;;;;-0.96;81.12;100033.56;108049;1277;22714;-83
2022/01/25 03:52:32;;;;;;;77.60;38.10;;;;;;;-0.97;81.03;100032.88;108042;1277;25383;-86
2022/01/25 03:54:59;;;;;;;67.40;32.40;;;;;;;-0.94;80.99;100026.57;108050;1277;22761;-84
2022/01/25 03:57:26;;;;;;;68.80;34.80;;;;;;;-0.91;81.43;100027.95;108048;1277;24007;-84
2022/01/25 03:59:57;;;;;;;75.60;32.70;;;;;;;-0.92;81.97;100023.16;108041;1277;25361;-74
2022/01/25 04:02:26;;;;;;;70.90;34.00;;;;;;;-0.95;82.09;100029.13;108066;1277;22560;-76
2022/01/25 04:04:53;;;;;;;64.30;31.60;;;;;;;-0.96;82.09;100023.14;108062;1277;22553;-79
2022/01/25 04:07:29;;;;;;;69.70;35.50;;;;;;;-0.97;81.70;100023.64;108081;1277;25355;-73
2022/01/25 04:09:56;;;;;;;72.20;34.50;;;;;;;-0.97;81.68;100027.08;108074;1277;22560;-73
2022/01/25 04:12:23;;;;;;;82.50;40.10;;;;;;;-0.93;81.41;100027.95;108054;1277;22635;-76
2022/01/25 04:14:50;;;;;;;74.00;37.20;;;;;;;-0.90;81.69;100034.63;108052;1277;22638;-78
2022/01/25 04:17:20;;;;;;;75.70;35.70;;;;;;;-0.88;82.17;100028.80;108039;1277;22726;-75
2022/01/25 04:20:11;;;;;;;80.70;38.40;;;;;;;-0.90;82.29;100022.65;108036;1277;22717;-75
2022/01/25 04:25:19;;;;;;;69.80;33.40;;;;;;;-0.96;81.73;100015.78;108050;1277;22595;-76
2022/01/25 04:27:46;;;;;;;81.20;35.80;;;;;;;-0.98;81.58;100013.72;108080;1277;23022;-75
2022/01/25 04:30:13;;;;;;;85.90;39.90;;;;;;;-0.96;81.51;100008.27;108056;1277;22628;-76
2022/01/25 04:35:30;;;;;;;73.00;35.20;;;;;;;-0.94;82.34;99997.84;108059;1277;22576;-74
2022/01/25 04:49:14;;;;;;;76.80;37.00;;;;;;;-1.03;81.70;99999.18;108066;1279;22676;-74
2022/01/25 05:01:34;;;;;;;68.80;33.60;;;;;;;-1.03;81.87;99991.66;108056;1279;22566;-77
2022/01/25 05:04:10;;;;;;;81.90;37.00;;;;;;;-1.05;81.80;99982.59;108034;1279;22553;-75
2022/01/25 05:06:37;;;;;;;78.10;37.00;;;;;;;-0.99;81.80;99986.54;108040;1279;22757;-74
2022/01/25 05:09:08;;;;;;;75.70;39.00;;;;;;;-1.00;81.92;99986.55;108051;1279;22751;-73
2022/01/25 05:11:40;;;;;;;74.90;34.60;;;;;;;-0.99;82.46;99989.45;108019;1279;22595;-75
2022/01/25 05:16:38;;;;;;;74.00;35.40;;;;;;;-1.03;82.51;99984.98;108052;1279;22552;-82
2022/01/25 05:24:38;;;;;;;69.50;35.00;;;;;;;-0.99;82.17;99997.65;108040;1279;22600;-84
2022/01/25 05:27:07;;;;;;;72.80;36.10;;;;;;;-0.95;82.36;99995.09;108033;1279;26216;-81
2022/01/25 05:29:34;;;;;;;69.00;33.30;;;;;;;-0.95;82.70;99994.24;108012;1279;22663;-82
2022/01/25 05:32:02;;;;;;;74.80;36.00;;;;;;;-0.96;82.75;99991.83;108048;1279;22587;-81
2022/01/25 05:34:29;;;;;;;67.30;35.10;;;;;;;-0.97;82.68;99987.90;107965;1279;22641;-75
2022/01/25 05:36:55;;;;;;;67.70;34.60;;;;;;;-0.99;82.58;99979.52;107918;1279;22686;-77
2022/01/25 05:39:28;;;;;;;81.20;35.80;;;;;;;-0.98;82.36;99974.73;107922;1279;22568;-74
2022/01/25 05:41:58;;;;;;;75.10;35.90;;;;;;;-0.93;82.20;99980.56;107938;1279;22629;-74
2022/01/25 05:47:07;;;;;;;62.60;32.90;;;;;;;-0.90;82.88;99978.53;107922;1279;22566;-74
2022/01/25 05:49:36;;;;;;;75.90;35.10;;;;;;;-0.91;82.71;99976.14;107942;1279;22568;-80
2022/01/25 05:52:06;;;;;;;69.30;34.00;;;;;;;-0.93;82.81;99972.36;107944;1279;22566;-77
2022/01/25 05:54:34;;;;;;;77.10;36.00;;;;;;;-0.94;82.63;99968.27;107944;1279;22562;-74
2022/01/25 05:57:01;;;;;;;85.20;37.70;;;;;;;-0.94;82.50;99973.73;108412;1279;22714;-75
2022/01/25 05:59:28;;;;;;;79.90;38.70;;;;;;;-0.89;82.43;99969.28;107968;1279;22596;-74
2022/01/25 06:01:55;;;;;;;79.90;37.90;;;;;;;-0.85;82.80;99974.27;107964;1279;25223;-85
2022/01/25 06:04:23;;;;;;;77.50;35.70;;;;;;;-0.85;82.93;99978.20;107974;1279;22567;-81
2022/01/25 06:06:51;;;;;;;73.50;35.50;;;;;;;-0.87;82.93;99971.51;107981;1279;22677;-84
2022/01/25 06:09:18;;;;;;;82.20;37.70;;;;;;;-0.88;83.02;99962.61;107938;1279;23164;-83
2022/01/25 06:11:45;;;;;;;75.20;36.60;;;;;;;-0.90;82.81;99959.04;107950;1279;22593;-83
2022/01/25 06:14:12;;;;;;;80.50;38.20;;;;;;;-0.89;82.77;99951.51;107940;1279;24480;-85
2022/01/25 06:16:39;;;;;;;84.70;38.10;;;;;;;-0.85;82.53;99948.10;107957;1279;22548;-74
2022/01/25 06:19:05;;;;;;;83.00;38.00;;;;;;;-0.83;82.85;99944.17;108004;1279;25346;-74
2022/01/25 06:21:32;;;;;;;72.60;35.00;;;;;;;-0.83;82.94;99938.35;107958;1278;24031;-73
2022/01/25 06:23:59;;;;;;;83.90;37.30;;;;;;;-0.85;83.08;99936.46;107924;1279;22634;-79
2022/01/25 06:26:26;;;;;;;80.90;36.10;;;;;;;-0.87;83.08;99931.50;107960;1279;22721;-82
2022/01/25 06:28:53;;;;;;;83.20;39.40;;;;;;;-0.90;82.89;99934.07;107913;1279;22563;-74
2022/01/25 06:31:20;;;;;;;98.90;44.30;;;;;;;-0.92;82.78;99927.73;108032;1279;24398;-74
2022/01/25 06:33:48;;;;;;;94.40;43.60;;;;;;;-0.88;82.79;99927.73;107905;1279;22567;-77
2022/01/25 06:36:15;;;;;;;86.30;39.40;;;;;;;-0.84;83.06;99929.63;107927;1279;22638;-74
2022/01/25 06:38:42;;;;;;;77.40;36.40;;;;;;;-0.84;83.43;99926.89;107946;1279;24235;-74
2022/01/25 06:41:10;;;;;;;81.10;38.30;;;;;;;-0.86;83.48;99921.92;107974;1279;22574;-75
2022/01/25 06:43:38;;;;;;;80.40;38.80;;;;;;;-0.85;83.42;99927.74;107927;1279;22604;-74
2022/01/25 06:46:06;;;;;;;85.00;38.80;;;;;;;-0.83;83.06;99934.07;107961;1279;22681;-74
2022/01/25 06:48:33;;;;;;;88.30;40.70;;;;;;;-0.83;82.93;99935.44;107957;1279;22633;-75
2022/01/25 06:51:00;;;;;;;87.10;38.20;;;;;;;-0.79;83.08;99934.92;107949;1279;22612;-76
2022/01/25 06:53:27;;;;;;;82.30;40.90;;;;;;;-0.77;83.06;99932.20;107943;1279;22650;-82
2022/01/25 06:55:54;;;;;;;78.40;37.50;;;;;;;-0.74;83.62;99930.33;107964;1279;22581;-75
2022/01/25 06:58:21;;;;;;;78.10;35.80;;;;;;;-0.76;83.81;99925.19;107962;1279;22584;-73
2022/01/25 07:00:48;;;;;;;77.80;36.80;;;;;;;-0.76;83.65;99928.10;107986;1279;22562;-85
2022/01/25 07:03:15;;;;;;;85.20;38.90;;;;;;;-0.73;83.57;99924.85;107987;1276;22626;-83
2022/01/25 07:05:42;;;;;;;90.20;42.00;;;;;;;-0.71;83.34;99918.00;107943;1279;23022;-84
2022/01/25 07:08:09;;;;;;;95.20;41.90;;;;;;;-0.67;83.20;99920.23;107936;1279;24296;-85
2022/01/25 07:10:36;;;;;;;79.10;37.60;;;;;;;-0.64;83.29;99922.46;107959;1279;22604;-83
2022/01/25 07:13:03;;;;;;;71.20;34.30;;;;;;;-0.63;83.67;99922.12;107955;1279;22546;-85
2022/01/25 07:15:30;;;;;;;78.00;38.10;;;;;;;-0.62;83.75;99918.00;107957;1279;22909;-74
2022/01/25 07:17:57;;;;;;;75.30;35.70;;;;;;;-0.63;83.68;99919.55;108004;1279;24535;-77
2022/01/25 07:20:24;;;;;;;80.90;36.10;;;;;;;-0.63;83.53;99922.11;107962;1279;22688;-81
2022/01/25 07:22:52;;;;;;;90.20;40.60;;;;;;;-0.65;83.24;99918.88;107957;1279;22626;-78
2022/01/25 07:25:20;;;;;;;81.00;39.20;;;;;;;-0.61;83.39;99918.00;107980;1279;25361;-77
2022/01/25 07:27:47;;;;;;;86.20;39.40;;;;;;;-0.61;83.47;99913.54;107935;1279;22580;-76
2022/01/25 07:30:14;;;;;;;68.70;34.30;;;;;;;-0.60;83.89;99913.21;107977;1279;22666;-85
2022/01/25 07:32:41;;;;;;;76.80;36.50;;;;;;;-0.60;84.16;99914.58;107894;1279;24486;-80
2022/01/25 07:35:09;;;;;;;72.80;37.10;;;;;;;-0.63;84.03;99919.20;107916;1279;22562;-82
2022/01/25 07:37:36;;;;;;;84.80;38.90;;;;;;;-0.66;84.24;99914.76;107904;1279;22671;-82
2022/01/25 07:40:04;;;;;;;99.80;40.40;;;;;;;-0.66;83.83;99917.48;107874;1279;22578;-82
2022/01/25 07:42:35;;;;;;;86.70;42.70;;;;;;;-0.61;83.71;99925.53;107968;1279;22553;-84
2022/01/25 07:45:08;;;;;;;87.70;42.00;;;;;;;-0.54;83.86;99921.42;107933;1279;23383;-77
2022/01/25 07:47:36;;;;;;;82.70;38.70;;;;;;;-0.51;84.08;99923.98;107946;1279;22580;-76
2022/01/25 07:50:05;;;;;;;88.00;40.20;;;;;;;-0.49;84.24;99923.65;107932;1279;23037;-80
2022/01/25 07:52:32;;;;;;;90.20;42.30;;;;;;;-0.47;84.07;99924.86;107911;1279;25482;-79
2022/01/25 07:54:59;;;;;;;83.70;42.10;;;;;;;-0.46;83.99;99919.55;107977;1279;22719;-78
2022/01/25 07:57:26;;;;;;;99.60;47.30;;;;;;;-0.44;83.88;99923.98;108211;1279;22638;-75
2022/01/25 07:59:53;;;;;;;96.70;47.60;;;;;;;-0.37;83.69;99927.59;108228;1279;22559;-92
2022/01/25 08:02:21;;;;;;;97.20;44.20;;;;;;;-0.34;83.78;99927.75;108218;1279;22567;-95
2022/01/25 08:04:48;;;;;;;77.80;38.70;;;;;;;-0.31;84.06;99928.27;108249;1279;22718;-94
2022/01/25 08:07:15;;;;;;;84.30;40.70;;;;;;;-0.32;84.18;99927.41;108262;1279;23953;-80
2022/01/25 08:09:42;;;;;;;88.70;40.00;;;;;;;-0.32;84.04;99928.09;108243;1279;22560;-80
2022/01/25 08:12:11;;;;;;;78.40;39.00;;;;;;;-0.32;83.95;99929.80;108237;1279;22638;-82
2022/01/25 08:14:42;;;;;;;95.00;41.20;;;;;;;-0.31;83.73;99921.93;108261;1279;22550;-87
2022/01/25 08:17:09;;;;;;;97.10;44.30;;;;;;;-0.25;83.64;99920.55;108251;1279;25317;-78
2022/01/25 08:19:36;;;;;;;85.00;43.70;;;;;;;-0.21;83.69;99923.98;108225;1279;22507;-76
2022/01/25 08:22:03;;;;;;;79.30;38.80;;;;;;;-0.19;83.98;99920.05;108262;1279;22552;-77
2022/01/25 08:24:30;;;;;;;80.30;37.40;;;;;;;-0.18;84.26;99917.11;108251;1279;25330;-73
2022/01/25 08:26:57;;;;;;;80.00;39.10;;;;;;;-0.18;84.27;99919.52;108203;1278;22559;-73
2022/01/25 08:29:24;;;;;;;94.10;44.50;;;;;;;-0.16;84.13;99918.98;108241;1279;22569;-91
2022/01/25 08:31:51;;;;;;;97.10;45.90;;;;;;;-0.15;83.81;99923.62;108237;1279;25396;-74
2022/01/25 08:34:18;;;;;;;99.70;48.90;;;;;;;-0.10;83.65;99918.82;108230;1279;22544;-75
2022/01/25 08:36:45;;;;;;;104.30;46.90;;;;;;;-0.05;83.80;99923.61;108258;1279;22651;-74
2022/01/25 08:39:13;;;;;;;93.20;43.30;;;;;;;-0.03;84.06;99920.70;108260;1279;22585;-74
2022/01/25 08:41:40;;;;;;;89.90;45.00;;;;;;;-0.04;84.07;99922.23;108233;1279;25428;-74
2022/01/25 08:44:07;;;;;;;101.50;50.80;;;;;;;-0.03;84.03;99923.09;108245;1279;22638;-81
2022/01/25 08:46:34;;;;;;;93.80;46.00;;;;;;;-0.02;83.78;99915.22;107969;1279;22523;-76
2022/01/25 08:49:02;;;;;;;107.00;46.20;;;;;;;0.02;83.74;99919.48;107937;1279;23211;-75
2022/01/25 08:51:29;;;;;;;98.80;45.70;;;;;;;0.08;83.69;99917.59;107925;1279;27682;-74
2022/01/25 08:53:56;;;;;;;99.20;45.60;;;;;;;0.11;83.69;99918.94;107925;1279;25348;-78
2022/01/25 08:56:23;;;;;;;81.00;39.00;;;;;;;0.12;84.00;99913.96;107913;1279;22631;-78
2022/01/25 08:58:50;;;;;;;87.80;41.00;;;;;;;0.15;84.15;99914.83;107971;1279;22560;-75
2022/01/25 09:01:17;;;;;;;92.50;41.00;;;;;;;0.17;84.09;99918.60;108013;1279;22693;-83
2022/01/25 09:03:44;;;;;;;90.00;39.20;;;;;;;0.18;84.00;99918.59;107969;1279;22623;-82
2022/01/25 09:06:11;;;;;;;90.60;39.60;;;;;;;0.19;83.89;99918.05;107991;1279;24390;-82
2022/01/25 09:08:39;;;;;;;87.60;40.60;;;;;;;0.25;83.72;99913.61;107963;1279;23344;-83
2022/01/25 09:11:07;;;;;;;94.40;42.40;;;;;;;0.27;84.04;99915.80;107962;1279;25382;-84
2022/01/25 09:13:34;;;;;;;82.50;37.00;;;;;;;0.29;84.17;99918.53;107998;1278;22560;-83
2022/01/25 09:16:02;;;;;;;90.20;40.00;;;;;;;0.30;84.33;99916.83;107954;1279;24448;-76
2022/01/25 09:18:29;;;;;;;89.60;37.70;;;;;;;0.30;84.22;99915.45;107929;1279;22618;-76
2022/01/25 09:20:56;;;;;;;95.00;39.50;;;;;;;0.29;84.01;99913.05;107918;1279;22638;-76
2022/01/25 09:23:25;;;;;;;113.50;42.30;;;;;;;0.30;83.91;99914.60;107949;1279;22705;-74
2022/01/25 09:25:52;;;;;;;90.70;37.60;;;;;;;0.36;83.85;99910.80;107946;1279;22698;-74
2022/01/25 09:28:19;;;;;;;89.30;39.80;;;;;;;0.40;83.77;99909.93;107992;1279;22565;-74
2022/01/25 09:30:47;;;;;;;80.30;36.80;;;;;;;0.42;84.17;99910.63;107946;1279;23512;-74
2022/01/25 09:33:14;;;;;;;84.70;38.80;;;;;;;0.42;84.22;99909.26;107952;1279;22708;-74
2022/01/25 09:35:42;;;;;;;81.00;39.30;;;;;;;0.43;84.16;99906.34;108063;1279;22706;-75
2022/01/25 09:38:10;;;;;;;84.00;39.40;;;;;;;0.43;83.75;99910.45;108031;1279;22635;-74
2022/01/25 09:40:37;;;;;;;86.50;39.10;;;;;;;0.40;83.78;99917.83;107921;1279;22570;-74
2022/01/25 09:43:06;;;;;;;86.10;40.50;;;;;;;0.44;83.76;99910.45;108037;1279;22680;-74
2022/01/25 09:45:34;;;;;;;86.80;42.10;;;;;;;0.49;83.83;99908.35;108356;1279;22666;-75
2022/01/25 09:48:04;;;;;;;81.60;40.30;;;;;;;0.54;84.04;99906.61;108408;1278;22684;-75
2022/01/25 09:50:32;;;;;;;83.00;40.20;;;;;;;0.53;84.07;99903.36;108061;1279;25683;-74
2022/01/25 09:53:00;;;;;;;95.50;43.10;;;;;;;0.53;84.06;99896.87;108194;1278;22617;-74
2022/01/25 09:55:32;;;;;;;99.50;44.20;;;;;;;0.53;83.85;99898.41;108048;1279;24535;-75
2022/01/25 09:57:59;;;;;;;102.20;44.00;;;;;;;0.53;83.79;99895.48;108011;1279;22571;-74
2022/01/25 10:00:31;;;;;;;101.90;45.20;;;;;;;0.60;83.58;99891.52;108034;1279;23272;-73
2022/01/25 10:06:15;;;;;;;81.00;40.60;;;;;;;0.65;84.16;99886.50;107195;1285;22636;-75
2022/01/25 10:08:44;;;;;;;93.00;43.10;;;;;;;0.64;84.15;99888.56;107188;1284;23410;-75
2022/01/25 10:11:13;;;;;;;100.10;44.60;;;;;;;0.64;83.97;99889.76;107291;1285;22701;-74
2022/01/25 10:13:48;;;;;;;98.30;44.50;;;;;;;0.63;83.82;99888.39;107201;1285;23442;-76
2022/01/25 10:16:18;;;;;;;100.20;44.80;;;;;;;0.71;83.67;99892.14;107173;1285;22692;-73
2022/01/25 10:18:50;;;;;;;93.20;44.10;;;;;;;0.74;83.86;99894.52;107196;1285;22745;-73
2022/01/25 10:21:20;;;;;;;90.00;41.10;;;;;;;0.78;84.07;99893.81;107159;1285;22661;-74
2022/01/25 10:24:08;;;;;;;94.70;41.50;;;;;;;0.80;84.26;99890.19;107197;1285;22560;-74
2022/01/25 10:26:59;;;;;;;89.60;38.40;;;;;;;0.80;83.97;99877.52;107188;1285;22690;-74
2022/01/25 10:29:34;;;;;;;95.30;39.70;;;;;;;0.82;83.71;99877.14;107181;1285;22585;-73
2022/01/25 10:32:04;;;;;;;103.90;41.10;;;;;;;0.81;83.53;99878.35;107201;1285;23998;-74
2022/01/25 10:34:33;;;;;;;103.30;43.10;;;;;;;0.86;83.53;99874.90;107161;1285;22562;-79
2022/01/25 10:37:13;;;;;;;95.10;42.70;;;;;;;0.89;83.74;99869.39;107216;1285;22696;-76
2022/01/25 10:39:42;;;;;;;84.60;37.40;;;;;;;0.91;84.06;99859.59;107267;1279;24235;-76
2022/01/25 10:42:10;;;;;;;96.90;41.40;;;;;;;0.89;84.12;99859.27;107936;1279;23129;-73
2022/01/25 10:44:56;;;;;;;88.20;38.40;;;;;;;0.87;84.04;99850.89;107908;1279;22682;-73
2022/01/25 10:47:50;;;;;;;83.50;36.50;;;;;;;0.87;83.94;99845.40;107943;1279;22715;-73
2022/01/25 10:50:19;;;;;;;83.80;33.90;;;;;;;0.89;83.64;99844.52;107967;1279;22749;-73
2022/01/25 10:52:47;;;;;;;88.70;35.60;;;;;;;0.93;83.43;99838.99;107837;1281;24488;-73
2022/01/25 10:55:16;;;;;;;86.90;35.70;;;;;;;0.99;83.78;99832.95;107969;1279;25052;-73
2022/01/25 10:57:55;;;;;;;84.50;37.00;;;;;;;1.00;84.09;99834.31;107960;1279;25498;-73
2022/01/25 11:00:22;;;;;;;84.90;38.80;;;;;;;1.00;84.05;99832.42;108015;1279;22752;-73
2022/01/25 11:02:51;;;;;;;96.70;40.00;;;;;;;0.98;84.03;99830.55;108015;1279;22612;-73
2022/01/25 11:05:19;;;;;;;82.10;36.40;;;;;;;1.00;83.66;99830.36;107979;1279;22564;-73
2022/01/25 11:07:48;;;;;;;88.00;35.50;;;;;;;1.01;83.43;99834.48;107981;1279;25403;-73
2022/01/25 11:10:21;;;;;;;72.60;33.20;;;;;;;1.03;83.46;99829.31;108205;1279;23429;-78
2022/01/25 11:13:11;;;;;;;;;;;;;;;1.05;83.56;99820.91;108068;1278;22548;-73
2022/01/25 11:15:38;;;;;;;64.10;28.70;;;;;;;1.03;83.94;99821.25;107972;1279;22568;-74
2022/01/25 11:18:05;;;;;;;67.00;30.10;;;;;;;1.01;83.97;99829.67;107942;1279;22634;-74
2022/01/25 11:20:33;;;;;;;66.10;31.00;;;;;;;1.00;83.98;99826.06;107948;1276;22580;-73
2022/01/25 11:23:01;;;;;;;71.30;32.20;;;;;;;1.00;83.80;99823.67;107972;1279;22572;-73
2022/01/25 11:25:29;;;;;;;72.00;32.60;;;;;;;1.00;83.45;99818.87;108097;1279;22545;-76
2022/01/25 11:27:58;;;;;;;72.00;30.20;;;;;;;1.03;83.54;99818.34;107985;1279;22553;-73
2022/01/25 11:30:25;;;;;;;62.60;29.00;;;;;;;1.07;83.69;99816.58;108015;1279;25422;-76
2022/01/25 11:32:53;;;;;;;56.60;26.50;;;;;;;1.09;84.07;99817.94;107916;1279;23506;-75
2022/01/25 11:35:23;;;;;;;63.40;30.60;;;;;;;1.10;84.20;99820.16;107958;1279;22714;-74
2022/01/25 11:37:50;;;;;;;60.00;29.20;;;;;;;1.07;83.94;99822.92;107992;1279;25442;-74
2022/01/25 11:40:41;;;;;;;63.50;29.30;;;;;;;1.07;83.70;99827.91;107979;1279;24205;-77
2022/01/25 11:43:12;;;;;;;77.30;32.30;;;;;;;1.05;83.64;99826.05;107963;1279;22571;-74
2022/01/25 11:45:45;;;;;;;72.60;32.90;;;;;;;1.09;83.57;99822.23;107932;1279;22563;-78
2022/01/25 11:48:12;;;;;;;73.00;34.00;;;;;;;1.13;83.76;99814.48;107966;1279;22583;-73
2022/01/25 11:50:42;;;;;;;75.50;34.40;;;;;;;1.14;83.89;99813.27;107976;1279;22636;-78
2022/01/25 11:53:13;;;;;;;83.00;34.80;;;;;;;1.10;83.98;99811.42;107976;1279;24320;-77
2022/01/25 11:55:48;;;;;;;82.10;36.40;;;;;;;1.09;84.01;99806.61;107975;1279;22565;-79
2022/01/25 11:58:16;;;;;;;81.00;36.20;;;;;;;1.09;83.90;99807.82;107959;1279;22819;-76
2022/01/25 12:00:58;;;;;;;76.70;34.90;;;;;;;1.13;83.64;99798.70;107922;1279;22640;-75
2022/01/25 12:03:42;;;;;;;65.20;31.00;;;;;;;1.20;83.44;99800.35;107975;1279;22656;-80
2022/01/25 12:06:30;;;;;;;59.10;29.10;;;;;;;1.23;83.56;99796.22;107945;1279;22560;-76
2022/01/25 12:14:25;;;;;;;59.50;29.00;;;;;;;1.27;83.56;99788.27;107941;1279;22684;-74
2022/01/25 12:16:55;;;;;;;61.00;28.30;;;;;;;1.30;83.33;99781.90;107963;1279;22698;-78
2022/01/25 12:19:34;;;;;;;64.10;27.30;;;;;;;1.28;83.14;99783.80;107967;1279;23517;-74
2022/01/25 12:22:07;;;;;;;53.80;26.30;;;;;;;1.32;83.03;99787.04;107950;1279;22567;-75
2022/01/25 12:24:45;;;;;;;56.00;27.40;;;;;;;1.34;83.24;99791.48;107942;1279;24061;-77
2022/01/25 12:27:27;;;;;;;51.10;25.60;;;;;;;1.29;83.46;99790.48;107982;1279;22668;-74
2022/01/25 12:30:04;;;;;;;65.50;28.20;;;;;;;1.26;83.51;99785.37;107975;1279;22534;-78
2022/01/25 12:32:36;;;;;;;60.30;28.60;;;;;;;1.24;83.32;99783.86;107952;1279;26657;-77
2022/01/25 12:35:08;;;;;;;60.80;28.40;;;;;;;1.22;83.18;99778.73;107973;1279;22695;-78
2022/01/25 12:37:45;;;;;;;62.20;28.60;;;;;;;1.23;83.21;99773.74;107946;1279;22591;-79
2022/01/25 12:40:31;;;;;;;52.60;26.70;;;;;;;1.31;82.93;99770.91;107949;1279;23345;-78
2022/01/25 12:43:02;;;;;;;54.30;26.80;;;;;;;1.34;83.24;99770.54;107973;1279;23524;-77
2022/01/25 12:45:35;;;;;;;53.70;25.50;;;;;;;1.34;83.44;99769.17;107948;1279;24409;-77
2022/01/25 12:48:06;;;;;;;60.50;28.50;;;;;;;1.35;83.52;99765.70;107939;1279;22577;-85
2022/01/25 12:50:37;;;;;;;65.20;29.40;;;;;;;1.34;83.31;99759.04;107961;1279;22747;-79
2022/01/25 12:53:07;;;;;;;50.80;25.30;;;;;;;1.36;83.05;99754.55;107838;1279;23166;-78
2022/01/25 12:55:39;;;;;;;43.30;23.20;;;;;;;1.36;82.77;99749.05;107946;1279;26201;-75
2022/01/25 12:58:07;;;;;;;50.50;24.40;;;;;;;1.37;82.70;99748.36;107937;1279;22664;-75
2022/01/25 13:00:41;;;;;;;51.90;23.70;;;;;;;1.40;82.96;99748.51;107964;1279;23145;-74
2022/01/25 13:03:20;;;;;;;52.00;26.10;;;;;;;1.41;83.18;99750.05;108522;1279;22582;-75
2022/01/25 13:05:51;;;;;;;50.60;25.90;;;;;;;1.42;83.13;99755.86;107927;1279;26251;-75
2022/01/25 13:08:33;;;;;;;47.30;23.70;;;;;;;1.41;83.02;99755.71;107929;1279;22678;-78
2022/01/25 13:11:20;;;;;;;44.40;22.30;;;;;;;1.37;82.83;99756.42;108398;1279;22647;-74
2022/01/25 13:16:43;;;;;;;50.20;22.00;;;;;;;1.30;82.54;99763.89;107670;1279;359096;-75
2022/01/25 13:19:11;;;;;;;50.50;21.80;;;;;;;1.32;82.51;99763.36;107965;1279;22925;-74
2022/01/25 13:21:42;;;;;;;45.10;21.00;;;;;;;1.35;82.70;99759.19;108255;1279;22572;-74
2022/01/25 13:24:12;;;;;;;52.00;22.70;;;;;;;1.37;82.99;99761.56;107938;1279;22651;-74
2022/01/25 13:26:58;;;;;;;41.90;21.50;;;;;;;1.37;82.98;99765.35;107937;1279;22596;-75